TimeCDT,TemperatureF,Dew PointF,Humidity,Sea Level PressureIn,VisibilityMPH,Wind Direction,Wind SpeedMPH,Gust SpeedMPH,PrecipitationIn,Events,Conditions,WindDirDegrees,DateUTC
12:01 AM,62.6,62.6,100,30.17,1.2,SSE,3.5,-,N/A,,Clear,150,2012-03-13 05:01:00
12:07 AM,62.6,62.6,100,30.18,3.0,Calm,Calm,-,N/A,,Clear,0,2012-03-13 05:07:00
12:30 AM,60.8,60.8,100,30.17,1.8,SSE,3.5,-,N/A,,Clear,160,2012-03-13 05:30:00
12:50 AM,60.8,60.8,100,30.17,4.0,Calm,Calm,-,N/A,,Clear,0,2012-03-13 05:50:00
12:53 AM,61.0,61.0,100,30.17,6.0,Calm,Calm,-,N/A,,Clear,0,2012-03-13 05:53:00
12:59 AM,60.8,60.8,100,30.17,1.8,Calm,Calm,-,N/A,,Partly Cloudy,0,2012-03-13 05:59:00
1:06 AM,60.8,60.8,100,30.17,0.8,Calm,Calm,-,N/A,,Mist,0,2012-03-13 06:06:00
1:30 AM,60.8,60.8,100,30.17,1.2,Calm,Calm,-,N/A,,Partly Cloudy,0,2012-03-13 06:30:00
1:42 AM,59.0,59.0,100,30.17,0.8,Calm,Calm,-,N/A,,Mist,0,2012-03-13 06:42:00
1:53 AM,60.1,59.0,96,30.17,0.5,Calm,Calm,-,N/A,Fog,Fog,0,2012-03-13 06:53:00
2:02 AM,59.0,59.0,100,30.18,1.2,Calm,Calm,-,N/A,,Partly Cloudy,0,2012-03-13 07:02:00
2:24 AM,57.2,57.2,100,30.17,0.8,Calm,Calm,-,N/A,,Mist,0,2012-03-13 07:24:00
2:40 AM,57.2,57.2,100,30.17,1.2,SSE,3.5,-,N/A,,Partly Cloudy,160,2012-03-13 07:40:00
2:45 AM,57.2,57.2,100,30.17,0.8,SSE,3.5,-,N/A,,Mist,150,2012-03-13 07:45:00
2:53 AM,57.9,57.9,100,30.16,0.8,SSE,3.5,-,N/A,,Mist,160,2012-03-13 07:53:00
2:57 AM,57.2,57.2,100,30.17,2.0,SSE,3.5,-,N/A,,Clear,150,2012-03-13 07:57:00
3:07 AM,57.2,57.2,100,30.17,3.0,SSE,3.5,-,N/A,,Scattered Clouds,150,2012-03-13 08:07:00
3:17 AM,59.0,59.0,100,30.17,6.0,SSE,3.5,-,N/A,,Mostly Cloudy,160,2012-03-13 08:17:00
3:53 AM,60.1,60.1,100,30.15,7.0,Calm,Calm,-,N/A,,Overcast,0,2012-03-13 08:53:00
4:06 AM,60.8,60.8,100,30.16,7.0,SSE,3.5,-,N/A,,Overcast,150,2012-03-13 09:06:00
4:53 AM,62.1,62.1,100,30.15,9.0,Calm,Calm,-,N/A,,Overcast,0,2012-03-13 09:53:00
5:53 AM,62.1,62.1,100,30.16,8.0,Calm,Calm,-,N/A,,Overcast,0,2012-03-13 10:53:00
6:53 AM,63.0,62.1,97,30.18,10.0,Calm,Calm,-,N/A,,Overcast,0,2012-03-13 11:53:00
7:29 AM,62.6,62.6,100,30.20,8.0,Calm,Calm,-,N/A,,Overcast,0,2012-03-13 12:29:00
7:33 AM,62.6,62.6,100,30.20,7.0,Calm,Calm,-,N/A,,Overcast,0,2012-03-13 12:33:00
7:53 AM,63.0,63.0,100,30.20,5.0,Calm,Calm,-,N/A,,Overcast,0,2012-03-13 12:53:00
8:00 AM,62.6,62.6,100,30.21,5.0,Calm,Calm,-,N/A,,Overcast,0,2012-03-13 13:00:00
8:51 AM,64.4,64.4,100,30.22,4.0,SSE,3.5,-,0.00,,Overcast,160,2012-03-13 13:51:00
8:53 AM,64.0,64.0,100,30.22,4.0,SSE,4.6,-,0.00,,Overcast,160,2012-03-13 13:53:00
9:07 AM,64.4,64.4,100,30.23,1.8,SSE,4.6,-,N/A,,Overcast,150,2012-03-13 14:07:00
9:27 AM,64.4,64.4,100,30.24,2.5,SSE,4.6,-,N/A,,Overcast,160,2012-03-13 14:27:00
9:37 AM,64.4,64.4,100,30.24,3.0,SSE,3.5,-,N/A,,Overcast,160,2012-03-13 14:37:00
9:53 AM,64.9,64.9,100,30.23,4.0,South,4.6,-,N/A,,Overcast,170,2012-03-13 14:53:00
10:53 AM,68.0,66.9,96,30.24,5.0,SSE,5.8,-,N/A,,Overcast,160,2012-03-13 15:53:00
11:09 AM,69.8,66.2,88,30.25,8.0,South,5.8,-,N/A,,Overcast,170,2012-03-13 16:09:00
11:53 AM,71.1,68.0,90,30.24,10.0,Calm,Calm,-,N/A,,Overcast,0,2012-03-13 16:53:00
12:23 PM,71.6,66.2,83,30.24,10.0,Calm,Calm,-,N/A,,Overcast,0,2012-03-13 17:23:00
12:41 PM,73.4,68.0,83,30.24,10.0,Variable,3.5,-,N/A,,Mostly Cloudy,0,2012-03-13 17:41:00
12:53 PM,75.0,66.9,76,30.22,10.0,South,5.8,-,N/A,,Overcast,170,2012-03-13 17:53:00
1:53 PM,75.9,66.0,71,30.19,10.0,South,8.1,-,N/A,,Partly Cloudy,170,2012-03-13 18:53:00
2:53 PM,77.0,64.9,66,30.17,10.0,Variable,3.5,-,N/A,,Clear,0,2012-03-13 19:53:00
3:53 PM,78.1,64.0,62,30.15,10.0,WSW,5.8,-,N/A,,Mostly Cloudy,250,2012-03-13 20:53:00
4:53 PM,78.1,64.0,62,30.14,10.0,South,5.8,-,N/A,,Mostly Cloudy,180,2012-03-13 21:53:00
5:53 PM,78.1,64.0,62,30.13,10.0,South,6.9,-,N/A,,Mostly Cloudy,180,2012-03-13 22:53:00
6:53 PM,75.0,64.9,71,30.14,10.0,Calm,Calm,-,N/A,,Partly Cloudy,0,2012-03-13 23:53:00
7:53 PM,70.0,66.0,87,30.14,10.0,Calm,Calm,-,N/A,,Clear,0,2012-03-14 00:53:00
8:53 PM,66.9,64.9,93,30.16,9.0,Calm,Calm,-,N/A,,Clear,0,2012-03-14 01:53:00
9:53 PM,66.0,64.0,93,30.18,10.0,South,4.6,-,N/A,,Clear,180,2012-03-14 02:53:00
10:53 PM,66.0,64.9,96,30.19,10.0,SSE,5.8,-,N/A,,Clear,160,2012-03-14 03:53:00
11:53 PM,66.9,66.0,97,30.19,9.0,South,6.9,-,N/A,,Clear,170,2012-03-14 04:53:00